Terminal Aerodrome Forecast
Issued by NWS

Home | Current Version | Previous Version | Text Only | Print | Product List | Glossary On
Versions: 1 2 3 4 5 6 7 8 9 10 11 12 13 14 15 16 17 18 19 20 21 22 23 24
000
FTUS43 KGRR 301141 AAB
TAFMKG
TAF AMD
KMKG 301141Z 3012/3112 20003KT 3SM BR BKN002 OVC110
     FM301400 36006KT 4SM BR OVC003
     FM301600 34009KT 2SM -RA BR OVC003
     FM301800 35010KT 1SM RA BR OVC002
     FM302300 36015G24KT 4SM -RA BR OVC007
     FM310400 02013G20KT 6SM -RA OVC015
     FM310600 03014G20KT P6SM OVC025=

USA.gov is the U.S. government's official web portal to all federal, state and local government web resources and services.